createdAt,value
2018-08-11T00:00:46.449Z,2.40
2018-08-11T00:01:46.373Z,2.60
2018-08-11T00:02:46.336Z,2.20
2018-08-11T00:03:46.265Z,2.40
2018-08-11T00:04:46.129Z,3.30
2018-08-11T00:05:46.052Z,5.20
2018-08-11T00:06:45.974Z,3.50
2018-08-11T00:07:45.915Z,3.10
2018-08-11T00:08:45.817Z,3.60
2018-08-11T00:09:45.762Z,4.00
2018-08-11T00:10:45.656Z,3.20
2018-08-11T00:11:45.591Z,3.80
2018-08-11T00:12:45.504Z,3.00
2018-08-11T00:13:45.465Z,2.30
2018-08-11T00:14:45.336Z,2.60
2018-08-11T00:17:27.597Z,4.30
2018-08-11T00:18:27.571Z,3.30
2018-08-11T00:19:27.428Z,4.20
2018-08-11T00:20:27.359Z,3.40
2018-08-11T00:21:27.262Z,3.20
2018-08-11T00:22:27.195Z,4.70
2018-08-11T00:23:27.168Z,3.00
2018-08-11T00:24:27.072Z,3.90
2018-08-11T00:25:26.958Z,3.40
2018-08-11T00:26:26.887Z,6.00
2018-08-11T00:27:26.790Z,4.70
2018-08-11T00:28:26.748Z,2.30
2018-08-11T00:29:26.635Z,4.40
2018-08-11T00:30:26.594Z,4.70
2018-08-11T00:31:26.488Z,2.80
2018-08-11T00:32:26.411Z,2.60
2018-08-11T00:33:26.401Z,4.40
2018-08-11T00:34:26.258Z,5.20
2018-08-11T00:35:26.193Z,2.60
2018-08-11T00:36:26.127Z,5.70
2018-08-11T00:37:26.010Z,6.50
2018-08-11T00:38:25.968Z,2.60
2018-08-11T00:39:25.850Z,3.00
2018-08-11T00:40:26.886Z,2.80
2018-08-11T00:41:25.688Z,3.40
2018-08-11T00:42:25.618Z,2.80
2018-08-11T00:43:25.530Z,3.10
2018-08-11T00:44:26.498Z,4.50
2018-08-11T00:45:25.500Z,2.70
2018-08-11T00:46:25.307Z,3.00
2018-08-11T00:47:25.218Z,4.60
2018-08-11T00:50:07.108Z,3.20
2018-08-11T00:51:07.063Z,4.40
2018-08-11T00:52:06.943Z,3.40
2018-08-11T00:53:06.865Z,3.70
2018-08-11T00:54:06.785Z,3.10
2018-08-11T00:55:06.893Z,6.50
2018-08-11T00:56:06.616Z,3.70
2018-08-11T00:58:48.609Z,4.10
2018-08-11T00:59:48.530Z,3.60
2018-08-11T01:00:48.460Z,7.20
2018-08-11T01:01:48.364Z,4.80
2018-08-11T01:02:48.292Z,5.20
2018-08-11T01:05:30.135Z,4.90
2018-08-11T01:06:30.039Z,5.30
2018-08-11T01:07:29.936Z,5.30
2018-08-11T01:08:29.881Z,6.80
2018-08-11T01:09:29.790Z,5.30
2018-08-11T01:10:30.727Z,5.10
2018-08-11T01:11:29.634Z,5.50
2018-08-11T01:12:29.546Z,6.20
2018-08-11T01:13:29.481Z,4.90
2018-08-11T01:14:29.403Z,5.30
2018-08-11T01:15:29.380Z,6.20
2018-08-11T01:16:30.244Z,5.70
2018-08-11T01:17:29.179Z,6.40
2018-08-11T01:18:29.078Z,4.70
2018-08-11T01:19:28.999Z,3.30
2018-08-11T01:20:28.915Z,2.50
2018-08-11T01:21:28.855Z,3.90
2018-08-11T01:22:28.764Z,2.40
2018-08-11T01:23:28.705Z,2.10
2018-08-11T01:24:28.597Z,2.50
2018-08-11T01:25:28.512Z,1.70
2018-08-11T01:26:28.466Z,2.50
2018-08-11T01:27:28.436Z,2.50
2018-08-11T01:28:28.297Z,2.20
2018-08-11T01:29:28.204Z,1.60
2018-08-11T01:30:28.130Z,2.30
2018-08-11T01:31:28.030Z,1.80
2018-08-11T01:32:28.078Z,2.10
2018-08-11T01:33:27.920Z,1.90
2018-08-11T01:34:27.858Z,1.50
2018-08-11T01:35:27.726Z,1.90
2018-08-11T01:36:27.655Z,2.10
2018-08-11T01:37:27.594Z,1.40
2018-08-11T01:38:27.521Z,3.20
2018-08-11T01:39:27.399Z,3.30
2018-08-11T01:42:09.610Z,4.70
2018-08-11T01:43:09.575Z,3.10
2018-08-11T01:44:09.456Z,2.60
2018-08-11T01:45:09.377Z,4.60
2018-08-11T01:46:09.304Z,1.90
2018-08-11T01:48:51.129Z,1.40
2018-08-11T01:49:51.033Z,3.60
2018-08-11T01:50:50.972Z,3.90
2018-08-11T01:51:50.874Z,3.00
2018-08-11T01:52:50.841Z,2.30
2018-08-11T01:55:32.610Z,2.20
2018-08-11T01:56:32.547Z,2.40
2018-08-11T01:57:32.464Z,3.10
2018-08-11T01:58:32.418Z,2.90
2018-08-11T01:59:32.298Z,2.00
2018-08-11T02:00:32.215Z,2.80
2018-08-11T02:01:32.151Z,2.80
2018-08-11T02:02:32.086Z,2.90
2018-08-11T02:03:31.994Z,1.90
2018-08-11T02:06:14.159Z,2.10
2018-08-11T02:08:56.157Z,2.00
2018-08-11T02:11:38.133Z,2.10
2018-08-11T02:12:38.070Z,2.50
2018-08-11T02:13:37.985Z,2.70
2018-08-11T02:16:20.115Z,1.90
2018-08-11T02:17:20.047Z,2.90
2018-08-11T02:18:19.955Z,3.00
2018-08-11T02:19:21.902Z,2.40
2018-08-11T02:20:19.792Z,2.50
2018-08-11T02:23:01.634Z,2.30
2018-08-11T02:25:43.641Z,2.70
2018-08-11T02:26:43.589Z,2.90
2018-08-11T02:27:43.461Z,2.10
2018-08-11T02:30:25.644Z,3.20
2018-08-11T02:31:25.539Z,2.50
2018-08-11T02:32:25.465Z,3.50
2018-08-11T02:33:25.402Z,4.50
2018-08-11T02:34:25.389Z,4.20
2018-08-11T02:35:25.264Z,4.40
2018-08-11T02:36:25.230Z,4.20
2018-08-11T02:39:07.203Z,5.00
2018-08-11T02:40:07.069Z,4.50
2018-08-11T02:41:06.972Z,4.10
2018-08-11T02:42:06.896Z,4.80
2018-08-11T02:43:06.817Z,4.30
2018-08-11T02:44:06.727Z,5.40
2018-08-11T02:45:06.689Z,6.10
2018-08-11T02:46:06.608Z,5.40
2018-08-11T02:47:06.493Z,8.50
2018-08-11T02:48:06.423Z,4.30
2018-08-11T02:49:06.335Z,4.00
2018-08-11T02:50:06.308Z,3.80
2018-08-11T02:51:06.319Z,3.40
2018-08-11T02:53:48.197Z,4.00
2018-08-11T02:54:48.062Z,2.70
2018-08-11T02:55:48.013Z,2.40
2018-08-11T02:56:47.899Z,2.10
2018-08-11T02:57:47.811Z,2.70
2018-08-11T02:58:47.738Z,2.50
2018-08-11T02:59:47.648Z,2.30
2018-08-11T03:00:48.591Z,2.50
2018-08-11T03:01:47.489Z,2.50
2018-08-11T03:04:29.634Z,2.40
2018-08-11T03:05:29.555Z,2.80
2018-08-11T03:06:29.497Z,2.20
2018-08-11T03:09:11.639Z,2.30
2018-08-11T03:10:11.722Z,2.70
2018-08-11T03:11:11.522Z,1.80
2018-08-11T03:12:11.425Z,1.80
2018-08-11T03:13:11.303Z,2.00
2018-08-11T03:14:11.346Z,2.30
2018-08-11T03:15:11.157Z,3.70
2018-08-11T03:16:11.108Z,3.10
2018-08-11T03:17:11.048Z,2.50
2018-08-11T03:18:10.935Z,2.10
2018-08-11T03:19:10.831Z,2.90
2018-08-11T03:20:10.776Z,2.50
2018-08-11T03:21:10.684Z,2.30
2018-08-11T03:22:10.610Z,2.30
2018-08-11T03:23:10.538Z,2.40
2018-08-11T03:24:10.452Z,1.30
2018-08-11T03:25:10.359Z,1.30
2018-08-11T03:26:10.290Z,1.20
2018-08-11T03:27:10.204Z,1.40
2018-08-11T03:28:10.139Z,1.70
2018-08-11T03:29:10.034Z,1.60
2018-08-11T03:30:09.967Z,3.00
2018-08-11T03:31:09.920Z,1.40
2018-08-11T03:32:09.832Z,1.90
2018-08-11T03:33:09.716Z,2.50
2018-08-11T03:34:09.754Z,1.90
2018-08-11T03:35:09.582Z,3.00
2018-08-11T03:36:09.486Z,2.70
2018-08-11T03:37:09.423Z,2.70
2018-08-11T03:38:09.349Z,1.60
2018-08-11T03:39:09.272Z,1.90
2018-08-11T03:40:09.166Z,1.90
2018-08-11T03:41:09.088Z,2.50
2018-08-11T03:42:09.013Z,2.40
2018-08-11T03:43:08.928Z,1.90
2018-08-11T03:44:08.874Z,2.20
2018-08-11T03:45:08.769Z,1.70
2018-08-11T03:46:08.901Z,1.80
2018-08-11T03:47:08.611Z,2.50
2018-08-11T03:48:08.545Z,2.20
2018-08-11T03:49:08.468Z,2.90
2018-08-11T03:50:08.397Z,2.70
2018-08-11T03:51:08.354Z,2.10
2018-08-11T03:52:08.298Z,3.00
2018-08-11T03:53:08.162Z,2.10
2018-08-11T03:54:08.060Z,1.90
2018-08-11T03:55:07.968Z,3.50
2018-08-11T03:57:50.171Z,3.00
2018-08-11T03:58:50.071Z,2.80
2018-08-11T03:59:49.999Z,3.20
2018-08-11T04:00:49.924Z,2.70
2018-08-11T04:01:49.835Z,3.10
2018-08-11T04:02:49.770Z,3.30
2018-08-11T04:03:49.685Z,3.10
2018-08-11T04:04:49.620Z,4.20
2018-08-11T04:05:49.509Z,2.80
2018-08-11T04:08:31.666Z,3.50
2018-08-11T04:09:31.605Z,3.00
2018-08-11T04:10:31.486Z,3.20
2018-08-11T04:11:31.410Z,3.40
2018-08-11T04:12:31.323Z,3.90
2018-08-11T04:13:31.259Z,1.80
2018-08-11T04:14:31.183Z,5.50
2018-08-11T04:17:13.235Z,3.50
2018-08-11T04:18:13.085Z,5.40
2018-08-11T04:19:13.009Z,3.40
2018-08-11T04:20:12.921Z,4.20
2018-08-11T04:21:12.819Z,4.90
2018-08-11T04:23:54.645Z,4.50
2018-08-11T04:24:54.596Z,4.70
2018-08-11T04:25:54.486Z,5.40
2018-08-11T04:26:54.419Z,3.50
2018-08-11T04:27:54.317Z,4.80
2018-08-11T04:30:36.165Z,4.30
2018-08-11T04:33:18.167Z,3.20
2018-08-11T04:36:00.294Z,4.20
2018-08-11T04:38:42.190Z,4.40
2018-08-11T04:41:24.171Z,4.50
2018-08-11T04:42:24.096Z,3.80
2018-08-11T04:43:24.001Z,4.70
2018-08-11T04:46:06.184Z,4.80
2018-08-11T04:47:06.087Z,4.70
2018-08-11T04:48:06.024Z,3.60
2018-08-11T04:49:05.924Z,5.50
2018-08-11T04:50:05.832Z,5.20
2018-08-11T04:51:05.813Z,5.50
2018-08-11T04:52:05.668Z,5.90
2018-08-11T04:53:05.620Z,3.80
2018-08-11T04:54:05.516Z,4.10
2018-08-11T04:55:05.449Z,3.60
2018-08-11T04:56:05.399Z,3.90
2018-08-11T04:57:06.295Z,4.00
2018-08-11T04:58:05.196Z,5.90
2018-08-11T04:59:05.128Z,5.10
2018-08-11T05:00:05.039Z,4.20
2018-08-11T05:01:04.988Z,3.60
2018-08-11T05:02:04.876Z,6.00
2018-08-11T05:03:04.819Z,5.90
2018-08-11T05:04:04.716Z,6.30
2018-08-11T05:05:04.645Z,6.70
2018-08-11T05:06:04.597Z,5.40
2018-08-11T05:07:04.543Z,5.30
2018-08-11T05:08:04.431Z,6.80
2018-08-11T05:09:04.337Z,5.80
2018-08-11T05:10:04.250Z,6.20
2018-08-11T05:12:46.213Z,4.90
2018-08-11T05:13:46.083Z,7.30
2018-08-11T05:14:45.998Z,5.60
2018-08-11T05:15:45.930Z,4.00
2018-08-11T05:16:45.851Z,5.50
2018-08-11T05:17:45.789Z,4.70
2018-08-11T05:18:45.699Z,4.30
2018-08-11T05:21:27.657Z,7.40
2018-08-11T05:22:27.630Z,4.90
2018-08-11T05:23:27.530Z,4.70
2018-08-11T05:24:27.434Z,4.60
2018-08-11T05:25:27.348Z,6.10
2018-08-11T05:28:09.200Z,6.20
2018-08-11T05:29:09.088Z,5.10
2018-08-11T05:30:09.123Z,6.90
2018-08-11T05:31:08.942Z,7.10
2018-08-11T05:32:08.873Z,4.50
2018-08-11T05:33:08.826Z,6.40
2018-08-11T05:34:08.687Z,7.30
2018-08-11T05:35:08.639Z,5.60
2018-08-11T05:36:08.527Z,8.00
2018-08-11T05:37:09.475Z,6.90
2018-08-11T05:38:08.390Z,5.10
2018-08-11T05:40:50.667Z,6.70
2018-08-11T05:41:50.621Z,5.90
2018-08-11T05:42:50.540Z,8.00
2018-08-11T05:45:32.709Z,8.30
2018-08-11T05:46:32.633Z,9.30
2018-08-11T05:47:32.552Z,7.10
2018-08-11T05:48:32.461Z,7.90
2018-08-11T05:49:32.365Z,11.00
2018-08-11T05:52:14.176Z,7.50
2018-08-11T05:53:14.128Z,10.00
2018-08-11T05:54:14.005Z,8.60
2018-08-11T05:56:56.192Z,7.40
2018-08-11T05:57:56.137Z,9.10
2018-08-11T05:58:56.019Z,13.90
2018-08-11T05:59:55.949Z,9.10
2018-08-11T06:00:55.872Z,7.30
2018-08-11T06:01:55.791Z,6.30
2018-08-11T06:02:55.731Z,7.40
2018-08-11T06:03:55.698Z,9.40
2018-08-11T06:04:55.551Z,10.00
2018-08-11T06:07:37.684Z,9.10
2018-08-11T06:08:37.633Z,9.20
2018-08-11T06:09:37.521Z,9.50
2018-08-11T06:10:37.568Z,7.80
2018-08-11T06:11:37.366Z,9.30
2018-08-11T06:14:19.221Z,10.60
2018-08-11T06:15:19.103Z,7.90
2018-08-11T06:16:19.029Z,9.80
2018-08-11T06:17:18.955Z,7.90
2018-08-11T06:18:18.917Z,9.70
2018-08-11T06:19:18.777Z,10.40
2018-08-11T06:20:18.707Z,7.70
2018-08-11T06:21:18.623Z,9.20
2018-08-11T06:22:18.549Z,8.50
2018-08-11T06:23:18.603Z,7.40
2018-08-11T06:24:18.440Z,8.70
2018-08-11T06:25:18.324Z,10.00
2018-08-11T06:26:18.234Z,10.30
2018-08-11T06:29:00.206Z,7.90
2018-08-11T06:30:00.123Z,9.40
2018-08-11T06:31:00.039Z,6.60
2018-08-11T06:32:00.009Z,6.70
2018-08-11T06:32:59.906Z,7.10
2018-08-11T06:33:59.843Z,8.00
2018-08-11T06:34:59.715Z,6.50
2018-08-11T06:35:59.659Z,6.40
2018-08-11T06:36:59.578Z,7.10
2018-08-11T06:37:59.526Z,6.80
2018-08-11T06:38:59.409Z,7.10
2018-08-11T06:39:59.353Z,8.10
2018-08-11T06:40:59.379Z,6.60
2018-08-11T06:43:41.184Z,7.40
2018-08-11T06:44:42.123Z,6.20
2018-08-11T06:45:41.028Z,6.80
2018-08-11T06:48:23.200Z,5.80
2018-08-11T06:49:23.154Z,8.90
2018-08-11T06:50:23.060Z,6.90
2018-08-11T06:51:22.960Z,7.30
2018-08-11T06:52:22.888Z,7.70
2018-08-11T06:53:22.815Z,6.80
2018-08-11T06:54:22.719Z,6.30
2018-08-11T06:55:23.669Z,7.50
2018-08-11T06:56:22.567Z,7.60
2018-08-11T06:57:22.510Z,5.10
2018-08-11T06:58:22.416Z,5.90
2018-08-11T06:59:22.335Z,5.80
2018-08-11T07:00:22.262Z,7.00
2018-08-11T07:03:04.209Z,6.10
2018-08-11T07:04:04.136Z,6.40
2018-08-11T07:05:04.042Z,7.30
2018-08-11T07:06:03.981Z,7.00
2018-08-11T07:07:03.928Z,6.00
2018-08-11T07:08:03.829Z,3.30
2018-08-11T07:09:03.733Z,8.50
2018-08-11T07:10:03.661Z,5.50
2018-08-11T07:11:03.597Z,5.00
2018-08-11T07:12:03.507Z,6.00
2018-08-11T07:13:03.428Z,6.20
2018-08-11T07:14:03.354Z,5.20
2018-08-11T07:15:03.269Z,7.10
2018-08-11T07:16:04.244Z,5.40
2018-08-11T07:17:03.125Z,5.20
2018-08-11T07:18:03.124Z,8.10
2018-08-11T07:19:03.105Z,4.70
2018-08-11T07:20:02.897Z,6.40
2018-08-11T07:21:02.842Z,5.50
2018-08-11T07:22:02.754Z,6.00
2018-08-11T07:23:02.672Z,4.30
2018-08-11T07:24:02.600Z,5.90
2018-08-11T07:25:02.521Z,5.90
2018-08-11T07:26:02.462Z,4.70
2018-08-11T07:27:02.381Z,5.20
2018-08-11T07:28:02.308Z,4.00
2018-08-11T07:29:02.221Z,8.60
2018-08-11T07:30:02.148Z,5.60
2018-08-11T07:31:02.298Z,5.60
2018-08-11T07:32:02.030Z,6.40
2018-08-11T07:33:01.912Z,4.30
2018-08-11T07:34:01.856Z,4.50
2018-08-11T07:35:01.789Z,5.60
2018-08-11T07:36:01.793Z,5.60
2018-08-11T07:37:01.631Z,4.60
2018-08-11T07:38:01.560Z,6.70
2018-08-11T07:39:01.466Z,4.20
2018-08-11T07:41:43.751Z,5.20
2018-08-11T07:42:43.743Z,5.10
2018-08-11T07:43:43.555Z,4.50
2018-08-11T07:44:43.489Z,5.40
2018-08-11T07:45:43.411Z,3.90
2018-08-11T07:46:43.362Z,5.00
2018-08-11T07:47:43.325Z,4.20
2018-08-11T07:48:43.190Z,3.40
2018-08-11T07:49:43.108Z,4.10
2018-08-11T07:50:43.065Z,8.50
2018-08-11T07:51:43.088Z,4.60
2018-08-11T07:52:42.936Z,4.40
2018-08-11T07:53:42.836Z,5.40
2018-08-11T07:54:42.765Z,5.90
2018-08-11T07:55:42.686Z,5.90
2018-08-11T07:56:42.665Z,4.00
2018-08-11T07:57:42.570Z,5.10
2018-08-11T07:58:42.474Z,4.60
2018-08-11T07:59:42.384Z,3.70
2018-08-11T08:00:42.321Z,4.60
2018-08-11T08:01:42.251Z,5.40
2018-08-11T08:02:42.233Z,6.10
2018-08-11T08:03:42.107Z,3.50
2018-08-11T08:04:42.024Z,5.10
2018-08-11T08:05:41.943Z,4.10
2018-08-11T08:06:41.907Z,6.70
2018-08-11T08:07:41.813Z,3.30
2018-08-11T08:08:42.779Z,5.10
2018-08-11T08:09:41.664Z,5.80
2018-08-11T08:12:23.723Z,3.80
2018-08-11T08:13:23.653Z,3.00
2018-08-11T08:14:23.597Z,6.60
2018-08-11T08:15:23.510Z,5.20
2018-08-11T08:16:23.430Z,4.10
2018-08-11T08:17:23.369Z,3.20
2018-08-11T08:18:23.294Z,3.60
2018-08-11T08:19:23.264Z,3.90
2018-08-11T08:20:23.144Z,3.80
2018-08-11T08:21:23.218Z,4.00
2018-08-11T08:22:23.002Z,3.00
2018-08-11T08:23:22.941Z,3.70
2018-08-11T08:24:22.890Z,5.20
2018-08-11T08:25:22.793Z,3.30
2018-08-11T08:26:22.868Z,3.50
2018-08-11T08:27:22.650Z,4.20
2018-08-11T08:28:22.581Z,3.10
2018-08-11T08:29:22.546Z,3.40
2018-08-11T08:30:22.437Z,3.70
2018-08-11T08:31:22.366Z,4.70
2018-08-11T08:32:22.315Z,3.50
2018-08-11T08:33:22.229Z,2.80
2018-08-11T08:34:22.292Z,2.70
2018-08-11T08:35:23.103Z,5.20
2018-08-11T08:36:22.026Z,2.80
2018-08-11T08:39:04.280Z,3.80
2018-08-11T08:40:04.189Z,5.00
2018-08-11T08:41:04.093Z,3.30
2018-08-11T08:42:04.036Z,4.30
2018-08-11T08:43:03.942Z,3.10
2018-08-11T08:44:03.893Z,4.70
2018-08-11T08:45:03.831Z,5.80
2018-08-11T08:46:03.763Z,3.70
2018-08-11T08:47:03.673Z,3.10
2018-08-11T08:48:03.622Z,3.00
2018-08-11T08:49:03.525Z,4.00
2018-08-11T08:50:03.453Z,4.80
2018-08-11T08:51:03.406Z,3.00
2018-08-11T08:52:03.299Z,4.30
2018-08-11T08:53:03.423Z,3.80
2018-08-11T08:54:03.190Z,4.20
2018-08-11T08:55:03.109Z,4.50
2018-08-11T08:56:03.034Z,2.60
2018-08-11T08:57:02.966Z,4.50
2018-08-11T08:58:02.926Z,2.90
2018-08-11T08:59:02.844Z,2.40
2018-08-11T09:00:02.761Z,3.70
2018-08-11T09:01:02.684Z,4.10
2018-08-11T09:02:02.625Z,4.40
2018-08-11T09:03:02.535Z,4.20
2018-08-11T09:05:44.766Z,4.90
2018-08-11T09:06:44.672Z,2.40
2018-08-11T09:07:44.605Z,4.80
2018-08-11T09:08:45.568Z,2.40
2018-08-11T09:09:44.478Z,2.90
2018-08-11T09:10:44.391Z,3.80
2018-08-11T09:11:44.408Z,4.50
2018-08-11T09:12:44.260Z,2.70
2018-08-11T09:13:44.188Z,4.70
2018-08-11T09:14:44.134Z,3.50
2018-08-11T09:15:44.052Z,2.90
2018-08-11T09:16:45.012Z,3.20
2018-08-11T09:17:43.891Z,2.90
2018-08-11T09:18:43.843Z,3.40
2018-08-11T09:19:43.755Z,3.80
2018-08-11T09:20:43.722Z,3.60
2018-08-11T09:21:43.654Z,3.30
2018-08-11T09:22:43.554Z,3.60
2018-08-11T09:23:43.478Z,3.40
2018-08-11T09:24:43.481Z,3.30
2018-08-11T09:25:43.342Z,4.10
2018-08-11T09:28:25.258Z,3.60
2018-08-11T09:29:25.198Z,4.40
2018-08-11T09:30:25.135Z,3.70
2018-08-11T09:31:25.069Z,2.90
2018-08-11T09:32:24.968Z,3.60
2018-08-11T09:35:07.357Z,3.50
2018-08-11T09:36:07.188Z,3.20
2018-08-11T09:37:07.150Z,2.90
2018-08-11T09:38:07.052Z,2.60
2018-08-11T09:39:07.020Z,3.20
2018-08-11T09:40:06.937Z,2.40
2018-08-11T09:41:06.890Z,3.90
2018-08-11T09:42:06.910Z,3.90
2018-08-11T09:43:06.704Z,3.10
2018-08-11T09:44:06.727Z,4.50
2018-08-11T09:45:06.579Z,2.90
2018-08-11T09:46:07.601Z,4.30
2018-08-11T09:47:06.436Z,2.60
2018-08-11T09:48:06.389Z,3.70
2018-08-11T09:49:06.316Z,4.70
2018-08-11T09:50:06.233Z,3.70
2018-08-11T09:51:06.175Z,3.70
2018-08-11T09:53:48.263Z,3.30
2018-08-11T09:54:48.195Z,3.40
2018-08-11T09:55:48.163Z,2.70
2018-08-11T09:56:48.069Z,2.90
2018-08-11T09:57:47.980Z,3.30
2018-08-11T09:58:48.016Z,2.30
2018-08-11T09:59:47.861Z,3.90
2018-08-11T10:00:47.857Z,3.10
2018-08-11T10:01:47.809Z,3.30
2018-08-11T10:02:47.634Z,3.30
2018-08-11T10:03:47.591Z,3.90
2018-08-11T10:06:29.783Z,2.80
2018-08-11T10:07:29.705Z,3.00
2018-08-11T10:08:29.621Z,3.90
2018-08-11T10:09:29.567Z,5.20
2018-08-11T10:10:29.553Z,3.00
2018-08-11T10:11:29.445Z,1.60
2018-08-11T10:12:29.326Z,2.30
2018-08-11T10:15:11.264Z,3.20
2018-08-11T10:16:11.207Z,4.20
2018-08-11T10:17:11.139Z,3.50
2018-08-11T10:18:11.056Z,3.80
2018-08-11T10:19:10.990Z,4.80
2018-08-11T10:20:10.925Z,3.40
2018-08-11T10:21:10.833Z,2.20
2018-08-11T10:22:11.848Z,4.10
2018-08-11T10:23:10.681Z,2.60
2018-08-11T10:24:10.606Z,2.30
2018-08-11T10:25:10.534Z,3.60
2018-08-11T10:26:10.471Z,2.40
2018-08-11T10:27:10.427Z,3.10
2018-08-11T10:28:10.328Z,2.70
2018-08-11T10:29:10.258Z,2.90
2018-08-11T10:30:10.200Z,3.70
2018-08-11T10:31:10.114Z,2.60
2018-08-11T10:32:10.065Z,3.10
2018-08-11T10:33:09.976Z,3.00
2018-08-11T10:34:09.911Z,3.60
2018-08-11T10:35:09.852Z,3.30
2018-08-11T10:36:09.879Z,1.90
2018-08-11T10:37:09.756Z,1.70
2018-08-11T10:39:51.815Z,2.80
2018-08-11T10:40:51.722Z,3.20
2018-08-11T10:41:51.656Z,3.20
2018-08-11T10:42:51.602Z,2.50
2018-08-11T10:43:51.489Z,2.60
2018-08-11T10:46:33.820Z,2.30
2018-08-11T10:47:33.744Z,3.40
2018-08-11T10:48:33.638Z,3.40
2018-08-11T10:49:33.582Z,4.30
2018-08-11T10:50:33.497Z,4.00
2018-08-11T10:51:33.427Z,3.40
2018-08-11T10:52:33.379Z,4.60
2018-08-11T10:53:33.335Z,2.80
2018-08-11T10:54:33.216Z,3.40
2018-08-11T10:55:33.146Z,3.00
2018-08-11T10:56:33.067Z,2.70
2018-08-11T10:57:33.090Z,3.70
2018-08-11T10:58:32.939Z,1.80
2018-08-11T10:59:32.864Z,3.70
2018-08-11T11:00:32.787Z,2.70
2018-08-11T11:01:32.727Z,4.30
2018-08-11T11:02:32.678Z,3.50
2018-08-11T11:03:33.600Z,4.00
2018-08-11T11:04:32.530Z,1.40
2018-08-11T11:07:14.801Z,3.00
2018-08-11T11:08:14.782Z,2.70
2018-08-11T11:09:14.661Z,2.20
2018-08-11T11:10:14.589Z,3.70
2018-08-11T11:11:14.513Z,1.90
2018-08-11T11:12:14.440Z,2.10
2018-08-11T11:13:14.548Z,2.20
2018-08-11T11:14:14.383Z,2.40
2018-08-11T11:15:14.218Z,2.50
2018-08-11T11:16:14.164Z,3.50
2018-08-11T11:17:14.111Z,2.60
2018-08-11T11:18:14.042Z,2.80
2018-08-11T11:19:13.944Z,3.30
2018-08-11T11:20:13.895Z,3.00
2018-08-11T11:21:13.815Z,2.40
2018-08-11T11:23:55.818Z,2.50
2018-08-11T11:24:55.755Z,2.10
2018-08-11T11:25:55.673Z,4.50
2018-08-11T11:26:55.590Z,2.90
2018-08-11T11:27:55.528Z,2.40
2018-08-11T11:28:56.469Z,2.70
2018-08-11T11:29:55.361Z,2.30
2018-08-11T11:30:55.317Z,2.20
2018-08-11T11:31:55.241Z,2.30
2018-08-11T11:32:55.171Z,3.60
2018-08-11T11:33:55.131Z,2.80
2018-08-11T11:34:55.196Z,2.40
2018-08-11T11:35:54.965Z,4.40
2018-08-11T11:36:54.903Z,2.50
2018-08-11T11:37:54.820Z,3.10
2018-08-11T11:38:54.724Z,2.40
2018-08-11T11:39:54.673Z,1.60
2018-08-11T11:40:54.589Z,1.80
2018-08-11T11:41:54.516Z,3.60
2018-08-11T11:42:54.455Z,2.50
2018-08-11T11:43:54.397Z,2.90
2018-08-11T11:44:54.534Z,2.10
2018-08-11T11:45:54.507Z,2.90
2018-08-11T11:46:54.564Z,1.70
2018-08-11T11:47:54.729Z,1.40
2018-08-11T11:48:54.016Z,1.20
2018-08-11T11:49:53.953Z,2.90
2018-08-11T11:50:53.898Z,2.10
2018-08-11T11:51:53.787Z,3.20
2018-08-11T11:52:53.736Z,3.20
2018-08-11T11:53:53.653Z,3.30
2018-08-11T11:54:53.626Z,2.20
2018-08-11T11:55:53.703Z,2.40
2018-08-11T11:56:53.454Z,3.50
2018-08-11T11:57:53.378Z,2.40
2018-08-11T11:58:53.309Z,2.00
2018-08-11T11:59:53.292Z,3.20
2018-08-11T12:00:53.200Z,2.90
2018-08-11T12:01:53.154Z,2.90
2018-08-11T12:02:53.028Z,3.00
2018-08-11T12:03:52.956Z,2.90
2018-08-11T12:04:52.901Z,2.20
2018-08-11T12:05:52.900Z,2.20
2018-08-11T12:06:52.785Z,2.20
2018-08-11T12:07:52.683Z,5.90
2018-08-11T12:08:52.617Z,3.20
2018-08-11T12:09:52.558Z,2.80
2018-08-11T12:10:52.520Z,2.20
2018-08-11T12:11:52.404Z,2.10
2018-08-11T12:12:52.363Z,2.60
2018-08-11T12:13:52.256Z,3.00
2018-08-11T12:14:52.199Z,2.00
2018-08-11T12:15:52.136Z,2.10
2018-08-11T12:16:52.163Z,2.80
2018-08-11T12:17:51.972Z,2.50
2018-08-11T12:18:51.919Z,2.80
2018-08-11T12:19:51.831Z,2.10
2018-08-11T12:20:51.767Z,2.70
2018-08-11T12:21:51.724Z,2.30
2018-08-11T12:22:51.602Z,3.30
2018-08-11T12:23:51.529Z,2.70
2018-08-11T12:24:51.468Z,2.80
2018-08-11T12:25:51.413Z,2.20
2018-08-11T12:26:51.349Z,1.50
2018-08-11T12:27:51.235Z,2.40
2018-08-11T12:28:51.168Z,2.30
2018-08-11T12:29:51.096Z,2.30
2018-08-11T12:32:33.350Z,2.90
2018-08-11T12:33:33.269Z,2.00
2018-08-11T12:34:33.174Z,1.30
2018-08-11T12:35:33.182Z,2.30
2018-08-11T12:36:33.066Z,2.30
2018-08-11T12:37:32.978Z,2.40
2018-08-11T12:38:32.914Z,2.10
2018-08-11T12:39:32.823Z,2.50
2018-08-11T12:40:32.744Z,2.80
2018-08-11T12:41:32.659Z,2.00
2018-08-11T12:42:32.583Z,2.00
2018-08-11T12:43:32.535Z,2.20
2018-08-11T12:44:32.421Z,2.70
2018-08-11T12:45:32.405Z,3.40
2018-08-11T12:46:32.298Z,2.30
2018-08-11T12:47:32.333Z,1.80
2018-08-11T12:48:32.133Z,3.80
2018-08-11T12:49:32.183Z,1.90
2018-08-11T12:50:31.981Z,1.60
2018-08-11T12:51:31.903Z,1.70
2018-08-11T12:52:31.852Z,3.80
2018-08-11T12:53:31.827Z,2.70
2018-08-11T12:54:31.674Z,2.20
2018-08-11T12:55:31.615Z,2.30
2018-08-11T12:56:31.536Z,2.30
2018-08-11T12:57:32.472Z,1.90
2018-08-11T12:58:31.417Z,3.10
2018-08-11T13:01:13.442Z,2.50
2018-08-11T13:02:13.364Z,1.60
2018-08-11T13:03:13.208Z,2.60
2018-08-11T13:04:13.118Z,2.60
2018-08-11T13:05:13.029Z,2.70
2018-08-11T13:07:55.382Z,1.40
2018-08-11T13:08:55.268Z,5.00
2018-08-11T13:09:55.189Z,1.70
2018-08-11T13:10:55.132Z,1.90
2018-08-11T13:11:55.052Z,1.80
2018-08-11T13:12:55.005Z,2.20
2018-08-11T13:13:54.883Z,2.20
2018-08-11T13:14:54.829Z,2.00
2018-08-11T13:15:54.741Z,2.60
2018-08-11T13:16:54.683Z,3.20
2018-08-11T13:17:54.668Z,2.50
2018-08-11T13:18:54.507Z,3.80
2018-08-11T13:19:54.436Z,2.70
2018-08-11T13:20:54.347Z,1.30
2018-08-11T13:21:54.273Z,2.20
2018-08-11T13:22:54.223Z,3.50
2018-08-11T13:23:54.113Z,2.40
2018-08-11T13:24:54.076Z,3.20
2018-08-11T13:25:53.976Z,1.50
2018-08-11T13:26:53.902Z,2.80
2018-08-11T13:27:53.823Z,2.30
2018-08-11T13:28:53.774Z,3.50
2018-08-11T13:29:53.662Z,4.40
2018-08-11T13:30:53.583Z,2.50
2018-08-11T13:31:53.523Z,2.00
2018-08-11T13:32:53.447Z,1.40
2018-08-11T13:33:53.374Z,1.90
2018-08-11T13:34:53.278Z,3.30
2018-08-11T13:35:53.205Z,3.40
2018-08-11T13:36:53.148Z,3.60
2018-08-11T13:37:53.061Z,3.00
2018-08-11T13:38:53.024Z,2.20
2018-08-11T13:39:52.917Z,2.40
2018-08-11T13:40:52.853Z,2.00
2018-08-11T13:41:52.749Z,3.30
2018-08-11T13:42:52.674Z,2.70
2018-08-11T13:43:52.592Z,1.70
2018-08-11T13:44:52.551Z,3.00
2018-08-11T13:45:52.457Z,2.60
2018-08-11T13:46:52.379Z,1.50
2018-08-11T13:47:52.299Z,2.30
2018-08-11T13:48:52.235Z,2.60
2018-08-11T13:49:52.222Z,1.80
2018-08-11T13:50:52.102Z,1.50
2018-08-11T13:51:52.002Z,2.60
2018-08-11T13:52:51.942Z,3.90
2018-08-11T13:53:51.834Z,1.80
2018-08-11T13:54:51.807Z,2.40
2018-08-11T13:55:51.689Z,3.20
2018-08-11T13:56:51.605Z,2.00
2018-08-11T13:57:51.559Z,3.30
2018-08-11T13:58:51.460Z,1.90
2018-08-11T13:59:51.399Z,4.30
2018-08-11T14:00:52.442Z,5.10
2018-08-11T14:01:51.232Z,2.20
2018-08-11T14:02:51.164Z,3.00
2018-08-11T14:03:51.083Z,3.40
2018-08-11T14:04:51.012Z,2.70
2018-08-11T14:05:50.977Z,2.40
2018-08-11T14:06:50.874Z,4.50
2018-08-11T14:07:50.777Z,2.70
2018-08-11T14:10:32.853Z,3.50
2018-08-11T14:11:32.808Z,2.90
2018-08-11T14:12:32.716Z,3.90
2018-08-11T14:13:32.631Z,3.70
2018-08-11T14:14:32.546Z,4.20
2018-08-11T14:15:32.482Z,3.40
2018-08-11T14:16:32.438Z,2.40
2018-08-11T14:17:32.326Z,1.90
2018-08-11T14:18:32.259Z,2.00
2018-08-11T14:19:32.174Z,1.70
2018-08-11T14:20:32.107Z,4.10
2018-08-11T14:23:14.382Z,2.60
2018-08-11T14:25:56.426Z,3.80
2018-08-11T14:26:56.349Z,2.50
2018-08-11T14:27:56.213Z,2.30
2018-08-11T14:28:56.154Z,2.20
2018-08-11T14:29:56.058Z,5.00
2018-08-11T14:30:56.017Z,3.60
2018-08-11T14:31:55.920Z,3.00
2018-08-11T14:32:56.859Z,2.40
2018-08-11T14:33:55.766Z,3.10
2018-08-11T14:34:55.690Z,2.60
2018-08-11T14:35:55.616Z,3.00
2018-08-11T14:36:55.534Z,2.00
2018-08-11T14:37:55.472Z,3.50
2018-08-11T14:38:55.383Z,3.30
2018-08-11T14:39:55.302Z,2.30
2018-08-11T14:42:37.387Z,2.90
2018-08-11T14:43:37.301Z,4.00
2018-08-11T14:44:37.317Z,2.80
2018-08-11T14:45:37.153Z,1.70
2018-08-11T14:46:37.072Z,3.00
2018-08-11T14:47:36.992Z,2.90
2018-08-11T14:48:36.968Z,1.80
2018-08-11T14:49:37.463Z,2.20
2018-08-11T14:50:36.780Z,3.40
2018-08-11T14:51:36.696Z,3.10
2018-08-11T14:52:36.637Z,3.40
2018-08-11T14:53:37.726Z,3.50
2018-08-11T14:54:36.627Z,2.20
2018-08-11T14:57:18.456Z,4.20
2018-08-11T14:58:18.373Z,2.10
2018-08-11T14:59:18.229Z,1.50
2018-08-11T15:00:18.179Z,3.60
2018-08-11T15:01:18.147Z,4.20
2018-08-11T15:04:00.432Z,1.60
2018-08-11T15:05:00.383Z,3.50